Etusivu
METAR-TAF:

METAR-TAF

Lentoasemat :

Jönköping, Ruotsi

Leveyspiiri: 57-46N, Pituuspiiri: 014-05E, korkeus merenpinnasta: 226 m

Tämänhetkinen sää

Tämä raportti tehtiin 1 tunti ja 2 minuuttia sitten, kello 04.20 UTC
Tuuli 5 kn etelästä/kaakosta
Lämpötila 3°C
Kosteus 93%
Ilmanpaine 1001 hPa
Näkyvyys: 8000 m
utua

METAR: ESGJ 130420Z AUTO 15005KT 8000 BR OVC005/// 03/02 Q1001

Aika: 06:22 (05:22 UTC)

Sääennuste

Tämä raportti tehtiin 52 minuuttia sitten, kello 04.30 UTC
Ennuste voimassa 13. päivästä klo 05 UTC - 13. päivään klo 12 UTC
Tuuli 5 kn etelästä/kaakosta
Näkyvyys: 8000 m
Pilvistä 500 ft:n korkeudessa
Todennäköisyys 40%
13. päivästä klo 05 UTC - 13. päivään klo 09 UTC
Näkyvyys: 4000 m
Hajonneita pilviä 400 ft:n korkeudessa
utua
Tulossa
13. päivästä klo 09 UTC - 13. päivään klo 11 UTC
Hajanaisia pilviä 1200 ft:n korkeudessa

TAF: ESGJ 130430Z 1305/1312 16005KT 8000 OVC005 PROB40 1305/1309 4000 BR BKN004 BECMG 1309/1311 SCT012

Säähavainnot ja -ennusteet yli 4000 lentoasemalta (METAR- ja TAF-raportit).

Käytössä olevat sääasemat on merkitty karttaan keltaisilla ja punaisilla pisteillä.

Aseta hiiri pisteen päälle nähdäksesi sääaseman nimen.

Klikkaa sitten nähdäksesi säähavainnot ja -ennusteet.

Kartan vaihtaminen: klikkaa mustalla rastilla varustettuja vihreitä pisteitä, niin voit zoomata sisään; viivalla varustettua vihreää pistettä, niin voit zoomata ulos tai vihreitä nuolia, niin pääset viereisille kartoille.


METAR-TAF: